Strawn, Illinois
Current Conditions -  °F | °C
As of 5:55 AM on Wednesday 28 Jan 2015 (Local Time) from KPNT Reporting Station
Clear Clear  
Wind Chill: 17°   Ceiling: Unl
Heat Index: 23°   Visibility: 10mi
Dew Point: 20°   Wind: 5mph
Humidity: 89%   Direction: 130°SE
Pressure: 30.29"   Gusts: NA
Location:  40.65°N, 88.4°W
Report Text: KPNT 281155Z AUTO 13004KT 10SM CLR M05/M07 A3029 RMK AO2 70001 T10521067 11025 21052
Loading
Personal Weather Stations






























Interactive Weather Map New forecast layout! Learn more

10-Day Weather Forecast

Advertisements
Track Severe Weather on mobile